sensor_id;sensor_type;location;lat;lon;timestamp;P1;durP1;ratioP1;P2;durP2;ratioP2
74900;SDS011;63461;51.416;6.758;2023-10-19T00:00:33;9.23;;;4.70;;
74900;SDS011;63461;51.416;6.758;2023-10-19T00:02:59;9.57;;;5.33;;
74900;SDS011;63461;51.416;6.758;2023-10-19T00:05:29;10.47;;;5.20;;
74900;SDS011;63461;51.416;6.758;2023-10-19T00:07:59;10.00;;;5.03;;
74900;SDS011;63461;51.416;6.758;2023-10-19T00:10:49;7.20;;;4.73;;
74900;SDS011;63461;51.416;6.758;2023-10-19T00:13:27;7.67;;;4.57;;
74900;SDS011;63461;51.416;6.758;2023-10-19T00:15:55;8.60;;;5.03;;
74900;SDS011;63461;51.416;6.758;2023-10-19T00:18:23;11.40;;;4.77;;
74900;SDS011;63461;51.416;6.758;2023-10-19T00:20:50;8.77;;;5.23;;
74900;SDS011;63461;51.416;6.758;2023-10-19T00:23:18;9.07;;;5.07;;
74900;SDS011;63461;51.416;6.758;2023-10-19T00:25:56;7.87;;;4.87;;
74900;SDS011;63461;51.416;6.758;2023-10-19T00:28:22;9.57;;;4.83;;
74900;SDS011;63461;51.416;6.758;2023-10-19T00:30:51;8.93;;;4.97;;
74900;SDS011;63461;51.416;6.758;2023-10-19T00:33:18;10.70;;;4.97;;
74900;SDS011;63461;51.416;6.758;2023-10-19T00:35:47;8.30;;;5.47;;
74900;SDS011;63461;51.416;6.758;2023-10-19T00:38:35;9.10;;;4.87;;
74900;SDS011;63461;51.416;6.758;2023-10-19T00:41:03;8.70;;;4.43;;
74900;SDS011;63461;51.416;6.758;2023-10-19T00:43:36;8.20;;;5.13;;
74900;SDS011;63461;51.416;6.758;2023-10-19T00:46:13;11.33;;;5.43;;
74900;SDS011;63461;51.416;6.758;2023-10-19T00:48:54;11.07;;;4.90;;
74900;SDS011;63461;51.416;6.758;2023-10-19T00:51:27;9.13;;;5.07;;
74900;SDS011;63461;51.416;6.758;2023-10-19T00:54:02;11.33;;;5.70;;
74900;SDS011;63461;51.416;6.758;2023-10-19T00:56:43;7.83;;;5.07;;
74900;SDS011;63461;51.416;6.758;2023-10-19T00:59:14;8.30;;;5.23;;
74900;SDS011;63461;51.416;6.758;2023-10-19T01:01:45;10.53;;;5.90;;
74900;SDS011;63461;51.416;6.758;2023-10-19T01:04:14;11.03;;;5.60;;
74900;SDS011;63461;51.416;6.758;2023-10-19T01:06:46;7.37;;;4.57;;
74900;SDS011;63461;51.416;6.758;2023-10-19T01:09:29;9.43;;;5.63;;
74900;SDS011;63461;51.416;6.758;2023-10-19T01:12:00;13.03;;;6.30;;
74900;SDS011;63461;51.416;6.758;2023-10-19T01:14:32;10.10;;;5.67;;
74900;SDS011;63461;51.416;6.758;2023-10-19T01:16:59;10.10;;;5.97;;
74900;SDS011;63461;51.416;6.758;2023-10-19T01:19:27;11.43;;;6.10;;
74900;SDS011;63461;51.416;6.758;2023-10-19T01:21:52;10.97;;;6.30;;
74900;SDS011;63461;51.416;6.758;2023-10-19T01:24:25;9.35;;;5.97;;
74900;SDS011;63461;51.416;6.758;2023-10-19T01:27:07;12.47;;;6.07;;
74900;SDS011;63461;51.416;6.758;2023-10-19T01:29:35;10.38;;;5.55;;
74900;SDS011;63461;51.416;6.758;2023-10-19T01:32:03;11.63;;;6.17;;
74900;SDS011;63461;51.416;6.758;2023-10-19T01:34:40;9.97;;;6.00;;
74900;SDS011;63461;51.416;6.758;2023-10-19T01:37:06;10.60;;;5.47;;
74900;SDS011;63461;51.416;6.758;2023-10-19T01:39:33;9.98;;;5.55;;
74900;SDS011;63461;51.416;6.758;2023-10-19T01:42:05;12.10;;;6.07;;
74900;SDS011;63461;51.416;6.758;2023-10-19T01:44:33;10.17;;;5.77;;
74900;SDS011;63461;51.416;6.758;2023-10-19T01:47:01;11.40;;;6.07;;
74900;SDS011;63461;51.416;6.758;2023-10-19T01:49:27;9.60;;;5.82;;
74900;SDS011;63461;51.416;6.758;2023-10-19T01:51:53;12.17;;;6.27;;
74900;SDS011;63461;51.416;6.758;2023-10-19T01:54:22;8.87;;;5.73;;
74900;SDS011;63461;51.416;6.758;2023-10-19T01:56:51;9.90;;;6.03;;
74900;SDS011;63461;51.416;6.758;2023-10-19T01:59:21;15.07;;;6.13;;
74900;SDS011;63461;51.416;6.758;2023-10-19T02:01:53;11.40;;;6.30;;
74900;SDS011;63461;51.416;6.758;2023-10-19T02:04:20;13.83;;;6.00;;
74900;SDS011;63461;51.416;6.758;2023-10-19T02:06:49;13.50;;;6.57;;
74900;SDS011;63461;51.416;6.758;2023-10-19T02:09:17;8.67;;;5.37;;
74900;SDS011;63461;51.416;6.758;2023-10-19T02:11:54;10.50;;;6.43;;
74900;SDS011;63461;51.416;6.758;2023-10-19T02:14:21;11.53;;;6.20;;
74900;SDS011;63461;51.416;6.758;2023-10-19T02:16:54;16.88;;;6.53;;
74900;SDS011;63461;51.416;6.758;2023-10-19T02:19:25;11.73;;;6.63;;
74900;SDS011;63461;51.416;6.758;2023-10-19T02:21:59;9.93;;;6.10;;
74900;SDS011;63461;51.416;6.758;2023-10-19T02:24:28;9.97;;;5.70;;
74900;SDS011;63461;51.416;6.758;2023-10-19T02:26:55;10.87;;;6.27;;
74900;SDS011;63461;51.416;6.758;2023-10-19T02:29:22;12.52;;;5.97;;
74900;SDS011;63461;51.416;6.758;2023-10-19T02:31:48;9.87;;;5.97;;
74900;SDS011;63461;51.416;6.758;2023-10-19T02:34:18;9.73;;;5.32;;
74900;SDS011;63461;51.416;6.758;2023-10-19T02:36:45;9.53;;;5.53;;
74900;SDS011;63461;51.416;6.758;2023-10-19T02:39:13;11.63;;;5.70;;
74900;SDS011;63461;51.416;6.758;2023-10-19T02:41:43;10.17;;;5.80;;
74900;SDS011;63461;51.416;6.758;2023-10-19T02:44:14;13.90;;;6.07;;
74900;SDS011;63461;51.416;6.758;2023-10-19T02:46:45;11.03;;;5.70;;
74900;SDS011;63461;51.416;6.758;2023-10-19T02:49:16;9.47;;;5.70;;
74900;SDS011;63461;51.416;6.758;2023-10-19T02:51:47;13.00;;;5.90;;
74900;SDS011;63461;51.416;6.758;2023-10-19T02:54:15;10.00;;;4.93;;
74900;SDS011;63461;51.416;6.758;2023-10-19T02:56:46;11.00;;;4.83;;
74900;SDS011;63461;51.416;6.758;2023-10-19T02:59:18;8.17;;;5.13;;
74900;SDS011;63461;51.416;6.758;2023-10-19T03:01:48;9.70;;;5.23;;
74900;SDS011;63461;51.416;6.758;2023-10-19T03:04:19;8.87;;;4.70;;
74900;SDS011;63461;51.416;6.758;2023-10-19T03:06:45;12.77;;;5.23;;
74900;SDS011;63461;51.416;6.758;2023-10-19T03:09:11;8.50;;;5.23;;
74900;SDS011;63461;51.416;6.758;2023-10-19T03:11:52;7.43;;;4.70;;
74900;SDS011;63461;51.416;6.758;2023-10-19T03:14:18;8.87;;;4.40;;
74900;SDS011;63461;51.416;6.758;2023-10-19T03:16:44;12.20;;;4.97;;
74900;SDS011;63461;51.416;6.758;2023-10-19T03:19:11;8.67;;;4.97;;
74900;SDS011;63461;51.416;6.758;2023-10-19T03:21:38;9.03;;;4.80;;
74900;SDS011;63461;51.416;6.758;2023-10-19T03:24:14;8.07;;;5.13;;
74900;SDS011;63461;51.416;6.758;2023-10-19T03:26:51;11.23;;;5.65;;
74900;SDS011;63461;51.416;6.758;2023-10-19T03:29:19;9.33;;;4.73;;
74900;SDS011;63461;51.416;6.758;2023-10-19T03:31:56;10.33;;;5.10;;
74900;SDS011;63461;51.416;6.758;2023-10-19T03:34:22;8.53;;;5.20;;
74900;SDS011;63461;51.416;6.758;2023-10-19T03:36:49;12.80;;;5.50;;
74900;SDS011;63461;51.416;6.758;2023-10-19T03:39:19;7.25;;;4.93;;
74900;SDS011;63461;51.416;6.758;2023-10-19T03:41:46;9.07;;;4.93;;
74900;SDS011;63461;51.416;6.758;2023-10-19T03:44:15;9.73;;;5.40;;
74900;SDS011;63461;51.416;6.758;2023-10-19T03:46:50;8.13;;;5.13;;
74900;SDS011;63461;51.416;6.758;2023-10-19T03:49:23;10.63;;;5.07;;
74900;SDS011;63461;51.416;6.758;2023-10-19T03:51:55;9.05;;;5.10;;
74900;SDS011;63461;51.416;6.758;2023-10-19T03:54:25;9.33;;;4.73;;
74900;SDS011;63461;51.416;6.758;2023-10-19T03:56:52;8.07;;;4.68;;
74900;SDS011;63461;51.416;6.758;2023-10-19T03:59:19;9.27;;;5.03;;
74900;SDS011;63461;51.416;6.758;2023-10-19T04:01:45;8.43;;;4.97;;
74900;SDS011;63461;51.416;6.758;2023-10-19T04:04:12;6.87;;;4.20;;
74900;SDS011;63461;51.416;6.758;2023-10-19T04:06:39;11.67;;;4.70;;
74900;SDS011;63461;51.416;6.758;2023-10-19T04:09:05;9.10;;;4.43;;
74900;SDS011;63461;51.416;6.758;2023-10-19T04:11:34;10.10;;;5.07;;
74900;SDS011;63461;51.416;6.758;2023-10-19T04:14:17;7.53;;;4.70;;
74900;SDS011;63461;51.416;6.758;2023-10-19T04:16:45;8.63;;;4.55;;
74900;SDS011;63461;51.416;6.758;2023-10-19T04:19:14;10.47;;;5.20;;
74900;SDS011;63461;51.416;6.758;2023-10-19T04:21:41;11.27;;;4.47;;
74900;SDS011;63461;51.416;6.758;2023-10-19T04:24:12;8.17;;;4.10;;
74900;SDS011;63461;51.416;6.758;2023-10-19T04:26:39;9.02;;;4.43;;
74900;SDS011;63461;51.416;6.758;2023-10-19T04:29:05;6.30;;;3.78;;
74900;SDS011;63461;51.416;6.758;2023-10-19T04:31:43;6.73;;;4.00;;
74900;SDS011;63461;51.416;6.758;2023-10-19T04:34:19;5.28;;;3.70;;
74900;SDS011;63461;51.416;6.758;2023-10-19T04:36:50;8.55;;;4.18;;
74900;SDS011;63461;51.416;6.758;2023-10-19T04:39:17;8.23;;;4.47;;
74900;SDS011;63461;51.416;6.758;2023-10-19T04:41:46;11.40;;;4.07;;
74900;SDS011;63461;51.416;6.758;2023-10-19T04:44:14;8.95;;;4.22;;
74900;SDS011;63461;51.416;6.758;2023-10-19T04:46:41;5.67;;;3.57;;
74900;SDS011;63461;51.416;6.758;2023-10-19T04:49:07;6.23;;;4.10;;
74900;SDS011;63461;51.416;6.758;2023-10-19T04:51:33;7.20;;;4.30;;
74900;SDS011;63461;51.416;6.758;2023-10-19T04:54:04;6.47;;;3.90;;
74900;SDS011;63461;51.416;6.758;2023-10-19T04:56:31;6.57;;;4.25;;
74900;SDS011;63461;51.416;6.758;2023-10-19T04:58:57;8.30;;;4.50;;
74900;SDS011;63461;51.416;6.758;2023-10-19T05:01:23;9.07;;;4.53;;
74900;SDS011;63461;51.416;6.758;2023-10-19T05:03:49;8.70;;;3.95;;
74900;SDS011;63461;51.416;6.758;2023-10-19T05:06:14;9.50;;;4.20;;
74900;SDS011;63461;51.416;6.758;2023-10-19T05:08:40;10.00;;;4.40;;
74900;SDS011;63461;51.416;6.758;2023-10-19T05:11:06;7.60;;;4.10;;
74900;SDS011;63461;51.416;6.758;2023-10-19T05:13:32;10.23;;;4.63;;
74900;SDS011;63461;51.416;6.758;2023-10-19T05:16:00;8.03;;;4.03;;
74900;SDS011;63461;51.416;6.758;2023-10-19T05:18:26;7.25;;;4.57;;
74900;SDS011;63461;51.416;6.758;2023-10-19T05:20:52;9.97;;;4.97;;
74900;SDS011;63461;51.416;6.758;2023-10-19T05:23:22;10.73;;;5.40;;
74900;SDS011;63461;51.416;6.758;2023-10-19T05:25:52;9.23;;;4.57;;
74900;SDS011;63461;51.416;6.758;2023-10-19T05:28:19;11.53;;;4.90;;
74900;SDS011;63461;51.416;6.758;2023-10-19T05:30:47;9.70;;;4.77;;
74900;SDS011;63461;51.416;6.758;2023-10-19T05:33:14;9.97;;;4.83;;
74900;SDS011;63461;51.416;6.758;2023-10-19T05:35:40;9.85;;;4.75;;
74900;SDS011;63461;51.416;6.758;2023-10-19T05:38:08;9.93;;;4.90;;
74900;SDS011;63461;51.416;6.758;2023-10-19T05:40:34;9.50;;;4.67;;
74900;SDS011;63461;51.416;6.758;2023-10-19T05:43:01;11.77;;;5.03;;
74900;SDS011;63461;51.416;6.758;2023-10-19T05:45:28;12.13;;;5.03;;
74900;SDS011;63461;51.416;6.758;2023-10-19T05:47:57;10.43;;;5.40;;
74900;SDS011;63461;51.416;6.758;2023-10-19T05:50:23;11.43;;;5.37;;
74900;SDS011;63461;51.416;6.758;2023-10-19T05:52:50;11.10;;;5.67;;
74900;SDS011;63461;51.416;6.758;2023-10-19T05:55:17;12.57;;;5.60;;
74900;SDS011;63461;51.416;6.758;2023-10-19T05:57:46;9.73;;;5.50;;
74900;SDS011;63461;51.416;6.758;2023-10-19T06:00:12;11.13;;;5.70;;
74900;SDS011;63461;51.416;6.758;2023-10-19T06:02:41;13.77;;;5.40;;
74900;SDS011;63461;51.416;6.758;2023-10-19T06:05:12;10.50;;;5.77;;
74900;SDS011;63461;51.416;6.758;2023-10-19T06:07:41;12.83;;;5.40;;
74900;SDS011;63461;51.416;6.758;2023-10-19T06:10:08;14.93;;;6.23;;
74900;SDS011;63461;51.416;6.758;2023-10-19T06:12:41;9.43;;;5.57;;
74900;SDS011;63461;51.416;6.758;2023-10-19T06:15:09;14.93;;;6.15;;
74900;SDS011;63461;51.416;6.758;2023-10-19T06:17:36;11.10;;;5.72;;
74900;SDS011;63461;51.416;6.758;2023-10-19T06:20:04;11.63;;;6.13;;
74900;SDS011;63461;51.416;6.758;2023-10-19T06:22:33;13.73;;;5.93;;
74900;SDS011;63461;51.416;6.758;2023-10-19T06:25:00;14.07;;;5.97;;
74900;SDS011;63461;51.416;6.758;2023-10-19T06:27:28;10.75;;;5.95;;
74900;SDS011;63461;51.416;6.758;2023-10-19T06:29:55;10.20;;;5.87;;
74900;SDS011;63461;51.416;6.758;2023-10-19T06:32:20;9.68;;;5.68;;
74900;SDS011;63461;51.416;6.758;2023-10-19T06:34:46;12.57;;;5.80;;
74900;SDS011;63461;51.416;6.758;2023-10-19T06:37:12;9.53;;;4.67;;
74900;SDS011;63461;51.416;6.758;2023-10-19T06:39:38;11.20;;;5.27;;
74900;SDS011;63461;51.416;6.758;2023-10-19T06:42:06;10.20;;;5.00;;
74900;SDS011;63461;51.416;6.758;2023-10-19T06:44:39;11.83;;;5.13;;
74900;SDS011;63461;51.416;6.758;2023-10-19T06:47:07;9.10;;;5.20;;
74900;SDS011;63461;51.416;6.758;2023-10-19T06:49:33;9.73;;;4.97;;
74900;SDS011;63461;51.416;6.758;2023-10-19T06:51:59;12.47;;;5.70;;
74900;SDS011;63461;51.416;6.758;2023-10-19T06:54:25;11.17;;;4.90;;
74900;SDS011;63461;51.416;6.758;2023-10-19T06:56:53;11.60;;;5.00;;
74900;SDS011;63461;51.416;6.758;2023-10-19T06:59:18;10.13;;;4.80;;
74900;SDS011;63461;51.416;6.758;2023-10-19T07:01:44;8.43;;;4.63;;
74900;SDS011;63461;51.416;6.758;2023-10-19T07:04:12;12.83;;;5.30;;
74900;SDS011;63461;51.416;6.758;2023-10-19T07:06:38;8.50;;;4.97;;
74900;SDS011;63461;51.416;6.758;2023-10-19T07:09:04;9.75;;;5.10;;
74900;SDS011;63461;51.416;6.758;2023-10-19T07:11:31;8.83;;;4.67;;
74900;SDS011;63461;51.416;6.758;2023-10-19T07:13:59;13.25;;;4.97;;
74900;SDS011;63461;51.416;6.758;2023-10-19T07:16:25;10.23;;;4.93;;
74900;SDS011;63461;51.416;6.758;2023-10-19T07:18:52;8.53;;;4.63;;
74900;SDS011;63461;51.416;6.758;2023-10-19T07:21:18;13.00;;;5.27;;
74900;SDS011;63461;51.416;6.758;2023-10-19T07:23:45;8.13;;;4.63;;
74900;SDS011;63461;51.416;6.758;2023-10-19T07:26:14;10.70;;;4.60;;
74900;SDS011;63461;51.416;6.758;2023-10-19T07:28:40;10.07;;;5.13;;
74900;SDS011;63461;51.416;6.758;2023-10-19T07:31:07;9.48;;;5.15;;
74900;SDS011;63461;51.416;6.758;2023-10-19T07:33:40;7.55;;;5.05;;
74900;SDS011;63461;51.416;6.758;2023-10-19T07:36:13;10.83;;;5.27;;
74900;SDS011;63461;51.416;6.758;2023-10-19T07:38:39;9.37;;;5.00;;
74900;SDS011;63461;51.416;6.758;2023-10-19T07:41:07;12.73;;;5.57;;
74900;SDS011;63461;51.416;6.758;2023-10-19T07:43:35;11.95;;;4.80;;
74900;SDS011;63461;51.416;6.758;2023-10-19T07:46:01;9.98;;;5.00;;
74900;SDS011;63461;51.416;6.758;2023-10-19T07:48:30;9.77;;;5.00;;
74900;SDS011;63461;51.416;6.758;2023-10-19T07:50:56;13.55;;;5.10;;
74900;SDS011;63461;51.416;6.758;2023-10-19T07:53:22;10.52;;;5.43;;
74900;SDS011;63461;51.416;6.758;2023-10-19T07:55:49;12.63;;;5.93;;
74900;SDS011;63461;51.416;6.758;2023-10-19T07:58:15;10.98;;;5.28;;
74900;SDS011;63461;51.416;6.758;2023-10-19T08:00:41;12.27;;;5.07;;
74900;SDS011;63461;51.416;6.758;2023-10-19T08:03:07;11.32;;;4.75;;
74900;SDS011;63461;51.416;6.758;2023-10-19T08:05:34;13.90;;;5.63;;
74900;SDS011;63461;51.416;6.758;2023-10-19T08:08:01;10.30;;;5.40;;
74900;SDS011;63461;51.416;6.758;2023-10-19T08:10:34;12.90;;;5.50;;
74900;SDS011;63461;51.416;6.758;2023-10-19T08:13:00;11.35;;;5.35;;
74900;SDS011;63461;51.416;6.758;2023-10-19T08:15:29;10.95;;;5.25;;
74900;SDS011;63461;51.416;6.758;2023-10-19T08:17:58;11.75;;;5.47;;
74900;SDS011;63461;51.416;6.758;2023-10-19T08:20:24;9.38;;;4.60;;
74900;SDS011;63461;51.416;6.758;2023-10-19T08:23:02;11.68;;;5.03;;
74900;SDS011;63461;51.416;6.758;2023-10-19T08:25:28;8.07;;;4.95;;
74900;SDS011;63461;51.416;6.758;2023-10-19T08:27:54;8.90;;;4.33;;
74900;SDS011;63461;51.416;6.758;2023-10-19T08:30:23;7.80;;;4.30;;
74900;SDS011;63461;51.416;6.758;2023-10-19T08:32:50;9.35;;;4.50;;
74900;SDS011;63461;51.416;6.758;2023-10-19T08:35:20;10.05;;;4.35;;
74900;SDS011;63461;51.416;6.758;2023-10-19T08:37:51;11.75;;;5.40;;
74900;SDS011;63461;51.416;6.758;2023-10-19T08:40:18;11.32;;;4.68;;
74900;SDS011;63461;51.416;6.758;2023-10-19T08:42:49;10.93;;;5.20;;
74900;SDS011;63461;51.416;6.758;2023-10-19T08:45:19;11.95;;;5.25;;
74900;SDS011;63461;51.416;6.758;2023-10-19T08:47:54;15.10;;;4.68;;
74900;SDS011;63461;51.416;6.758;2023-10-19T08:50:30;9.18;;;4.70;;
74900;SDS011;63461;51.416;6.758;2023-10-19T08:52:59;16.35;;;5.28;;
74900;SDS011;63461;51.416;6.758;2023-10-19T08:55:31;9.80;;;4.47;;
74900;SDS011;63461;51.416;6.758;2023-10-19T08:58:01;12.88;;;4.97;;
74900;SDS011;63461;51.416;6.758;2023-10-19T09:00:42;11.32;;;5.15;;
74900;SDS011;63461;51.416;6.758;2023-10-19T09:03:13;12.90;;;5.18;;
74900;SDS011;63461;51.416;6.758;2023-10-19T09:05:41;8.90;;;4.80;;
74900;SDS011;63461;51.416;6.758;2023-10-19T09:08:08;9.27;;;4.35;;
74900;SDS011;63461;51.416;6.758;2023-10-19T09:10:36;9.02;;;4.05;;
74900;SDS011;63461;51.416;6.758;2023-10-19T09:13:03;9.65;;;4.22;;
74900;SDS011;63461;51.416;6.758;2023-10-19T09:15:33;10.95;;;4.22;;
74900;SDS011;63461;51.416;6.758;2023-10-19T09:18:16;13.73;;;4.82;;
74900;SDS011;63461;51.416;6.758;2023-10-19T09:20:44;8.00;;;3.50;;
74900;SDS011;63461;51.416;6.758;2023-10-19T09:23:24;9.57;;;4.13;;
74900;SDS011;63461;51.416;6.758;2023-10-19T09:25:55;8.45;;;2.80;;
74900;SDS011;63461;51.416;6.758;2023-10-19T09:28:22;9.13;;;3.63;;
74900;SDS011;63461;51.416;6.758;2023-10-19T09:30:49;10.70;;;3.13;;
74900;SDS011;63461;51.416;6.758;2023-10-19T09:33:16;6.82;;;2.70;;
74900;SDS011;63461;51.416;6.758;2023-10-19T09:35:44;10.52;;;3.10;;
74900;SDS011;63461;51.416;6.758;2023-10-19T09:38:14;7.75;;;2.90;;
74900;SDS011;63461;51.416;6.758;2023-10-19T09:40:41;6.90;;;2.90;;
74900;SDS011;63461;51.416;6.758;2023-10-19T09:43:08;5.93;;;2.55;;
74900;SDS011;63461;51.416;6.758;2023-10-19T09:45:41;8.40;;;2.90;;
74900;SDS011;63461;51.416;6.758;2023-10-19T09:48:15;5.40;;;2.28;;
74900;SDS011;63461;51.416;6.758;2023-10-19T09:50:43;8.48;;;2.92;;
74900;SDS011;63461;51.416;6.758;2023-10-19T09:53:17;4.40;;;2.33;;
74900;SDS011;63461;51.416;6.758;2023-10-19T09:55:44;9.10;;;3.28;;
74900;SDS011;63461;51.416;6.758;2023-10-19T09:58:12;8.18;;;2.22;;
74900;SDS011;63461;51.416;6.758;2023-10-19T10:00:43;6.32;;;2.42;;
74900;SDS011;63461;51.416;6.758;2023-10-19T10:06:15;9.10;;;2.35;;
74900;SDS011;63461;51.416;6.758;2023-10-19T10:08:43;8.57;;;2.58;;
74900;SDS011;63461;51.416;6.758;2023-10-19T10:11:17;7.25;;;1.80;;
74900;SDS011;63461;51.416;6.758;2023-10-19T10:13:57;8.27;;;2.13;;
74900;SDS011;63461;51.416;6.758;2023-10-19T10:16:24;8.48;;;2.13;;
74900;SDS011;63461;51.416;6.758;2023-10-19T10:18:54;10.98;;;2.20;;
74900;SDS011;63461;51.416;6.758;2023-10-19T10:21:26;7.70;;;2.40;;
74900;SDS011;63461;51.416;6.758;2023-10-19T10:23:53;10.68;;;1.95;;
74900;SDS011;63461;51.416;6.758;2023-10-19T10:26:22;12.25;;;2.22;;
74900;SDS011;63461;51.416;6.758;2023-10-19T10:29:07;9.95;;;2.38;;
74900;SDS011;63461;51.416;6.758;2023-10-19T10:31:40;10.77;;;2.08;;
74900;SDS011;63461;51.416;6.758;2023-10-19T10:34:10;7.47;;;2.63;;
74900;SDS011;63461;51.416;6.758;2023-10-19T10:39:30;10.52;;;2.25;;
74900;SDS011;63461;51.416;6.758;2023-10-19T10:42:00;7.15;;;2.42;;
74900;SDS011;63461;51.416;6.758;2023-10-19T10:44:45;10.63;;;2.15;;
74900;SDS011;63461;51.416;6.758;2023-10-19T10:47:15;9.30;;;1.75;;
74900;SDS011;63461;51.416;6.758;2023-10-19T10:49:58;13.35;;;2.78;;
74900;SDS011;63461;51.416;6.758;2023-10-19T10:52:35;9.65;;;2.40;;
74900;SDS011;63461;51.416;6.758;2023-10-19T10:55:09;12.70;;;2.63;;
74900;SDS011;63461;51.416;6.758;2023-10-19T10:57:37;10.15;;;2.25;;
74900;SDS011;63461;51.416;6.758;2023-10-19T11:00:04;10.63;;;2.85;;
74900;SDS011;63461;51.416;6.758;2023-10-19T11:02:35;10.07;;;2.75;;
74900;SDS011;63461;51.416;6.758;2023-10-19T11:05:01;7.65;;;1.88;;
74900;SDS011;63461;51.416;6.758;2023-10-19T11:07:28;5.55;;;1.73;;
74900;SDS011;63461;51.416;6.758;2023-10-19T11:09:55;9.90;;;3.08;;
74900;SDS011;63461;51.416;6.758;2023-10-19T11:12:21;7.47;;;2.45;;
74900;SDS011;63461;51.416;6.758;2023-10-19T11:14:51;12.02;;;2.90;;
74900;SDS011;63461;51.416;6.758;2023-10-19T11:17:18;12.95;;;2.92;;
74900;SDS011;63461;51.416;6.758;2023-10-19T11:19:44;11.38;;;2.40;;
74900;SDS011;63461;51.416;6.758;2023-10-19T11:22:10;9.50;;;2.30;;
74900;SDS011;63461;51.416;6.758;2023-10-19T11:24:40;9.98;;;2.22;;
74900;SDS011;63461;51.416;6.758;2023-10-19T11:27:09;6.80;;;1.80;;
74900;SDS011;63461;51.416;6.758;2023-10-19T11:29:37;7.93;;;2.05;;
74900;SDS011;63461;51.416;6.758;2023-10-19T11:32:03;12.15;;;2.10;;
74900;SDS011;63461;51.416;6.758;2023-10-19T11:34:31;6.97;;;1.85;;
74900;SDS011;63461;51.416;6.758;2023-10-19T11:36:59;11.45;;;2.30;;
74900;SDS011;63461;51.416;6.758;2023-10-19T11:39:25;9.20;;;1.85;;
74900;SDS011;63461;51.416;6.758;2023-10-19T11:41:51;8.90;;;2.42;;
74900;SDS011;63461;51.416;6.758;2023-10-19T11:44:18;8.57;;;1.80;;
74900;SDS011;63461;51.416;6.758;2023-10-19T11:46:45;5.82;;;1.77;;
74900;SDS011;63461;51.416;6.758;2023-10-19T11:49:11;6.22;;;1.92;;
74900;SDS011;63461;51.416;6.758;2023-10-19T11:51:37;10.90;;;2.00;;
74900;SDS011;63461;51.416;6.758;2023-10-19T11:54:06;8.48;;;2.08;;
74900;SDS011;63461;51.416;6.758;2023-10-19T11:56:32;8.93;;;2.42;;
74900;SDS011;63461;51.416;6.758;2023-10-19T11:58:57;9.15;;;1.90;;
74900;SDS011;63461;51.416;6.758;2023-10-19T12:01:23;8.52;;;2.00;;
74900;SDS011;63461;51.416;6.758;2023-10-19T12:03:52;6.63;;;1.70;;
74900;SDS011;63461;51.416;6.758;2023-10-19T12:06:18;8.85;;;1.88;;
74900;SDS011;63461;51.416;6.758;2023-10-19T12:08:48;13.45;;;2.35;;
74900;SDS011;63461;51.416;6.758;2023-10-19T12:11:14;6.13;;;1.80;;
74900;SDS011;63461;51.416;6.758;2023-10-19T12:13:45;11.68;;;2.05;;
74900;SDS011;63461;51.416;6.758;2023-10-19T12:16:12;10.80;;;1.92;;
74900;SDS011;63461;51.416;6.758;2023-10-19T12:18:44;6.03;;;1.83;;
74900;SDS011;63461;51.416;6.758;2023-10-19T12:21:11;10.60;;;1.90;;
74900;SDS011;63461;51.416;6.758;2023-10-19T12:23:40;6.55;;;1.70;;
74900;SDS011;63461;51.416;6.758;2023-10-19T12:26:16;11.43;;;1.55;;
74900;SDS011;63461;51.416;6.758;2023-10-19T12:28:43;7.72;;;1.50;;
74900;SDS011;63461;51.416;6.758;2023-10-19T12:31:11;9.18;;;1.60;;
74900;SDS011;63461;51.416;6.758;2023-10-19T12:33:38;10.07;;;1.60;;
74900;SDS011;63461;51.416;6.758;2023-10-19T12:36:07;10.35;;;2.00;;
74900;SDS011;63461;51.416;6.758;2023-10-19T12:38:52;11.43;;;1.73;;
74900;SDS011;63461;51.416;6.758;2023-10-19T12:41:20;9.15;;;1.90;;
74900;SDS011;63461;51.416;6.758;2023-10-19T12:43:46;7.90;;;1.98;;
74900;SDS011;63461;51.416;6.758;2023-10-19T12:46:15;9.23;;;1.88;;
74900;SDS011;63461;51.416;6.758;2023-10-19T12:48:42;8.02;;;1.92;;
74900;SDS011;63461;51.416;6.758;2023-10-19T12:51:08;6.68;;;1.25;;
74900;SDS011;63461;51.416;6.758;2023-10-19T12:53:37;11.25;;;1.80;;
74900;SDS011;63461;51.416;6.758;2023-10-19T12:56:06;7.93;;;2.08;;
74900;SDS011;63461;51.416;6.758;2023-10-19T12:58:33;8.90;;;1.80;;
74900;SDS011;63461;51.416;6.758;2023-10-19T13:00:58;9.68;;;1.92;;
74900;SDS011;63461;51.416;6.758;2023-10-19T13:03:24;7.80;;;1.58;;
74900;SDS011;63461;51.416;6.758;2023-10-19T13:05:53;7.70;;;1.88;;
74900;SDS011;63461;51.416;6.758;2023-10-19T13:08:19;4.75;;;1.52;;
74900;SDS011;63461;51.416;6.758;2023-10-19T13:10:46;8.60;;;1.95;;
74900;SDS011;63461;51.416;6.758;2023-10-19T13:13:14;6.07;;;1.95;;
74900;SDS011;63461;51.416;6.758;2023-10-19T13:15:41;6.95;;;2.30;;
74900;SDS011;63461;51.416;6.758;2023-10-19T13:18:09;9.32;;;2.30;;
74900;SDS011;63461;51.416;6.758;2023-10-19T13:20:39;9.48;;;1.77;;
74900;SDS011;63461;51.416;6.758;2023-10-19T13:23:09;6.72;;;1.73;;
74900;SDS011;63461;51.416;6.758;2023-10-19T13:25:41;6.80;;;2.05;;
74900;SDS011;63461;51.416;6.758;2023-10-19T13:28:11;8.68;;;1.88;;
74900;SDS011;63461;51.416;6.758;2023-10-19T13:30:39;6.90;;;2.10;;
74900;SDS011;63461;51.416;6.758;2023-10-19T13:33:06;10.07;;;1.67;;
74900;SDS011;63461;51.416;6.758;2023-10-19T13:35:37;6.43;;;1.80;;
74900;SDS011;63461;51.416;6.758;2023-10-19T13:38:04;5.72;;;2.13;;
74900;SDS011;63461;51.416;6.758;2023-10-19T13:40:31;5.30;;;1.80;;
74900;SDS011;63461;51.416;6.758;2023-10-19T13:42:57;8.82;;;2.00;;
74900;SDS011;63461;51.416;6.758;2023-10-19T13:45:42;11.98;;;3.13;;
74900;SDS011;63461;51.416;6.758;2023-10-19T13:48:09;7.00;;;2.30;;
74900;SDS011;63461;51.416;6.758;2023-10-19T13:50:46;15.57;;;3.45;;
74900;SDS011;63461;51.416;6.758;2023-10-19T13:53:13;7.97;;;2.47;;
74900;SDS011;63461;51.416;6.758;2023-10-19T13:55:41;10.60;;;2.08;;
74900;SDS011;63461;51.416;6.758;2023-10-19T13:58:07;10.13;;;2.22;;
74900;SDS011;63461;51.416;6.758;2023-10-19T14:00:33;9.40;;;2.15;;
74900;SDS011;63461;51.416;6.758;2023-10-19T14:02:59;13.05;;;2.20;;
74900;SDS011;63461;51.416;6.758;2023-10-19T14:05:26;8.73;;;2.10;;
74900;SDS011;63461;51.416;6.758;2023-10-19T14:07:53;13.63;;;2.30;;
74900;SDS011;63461;51.416;6.758;2023-10-19T14:10:19;10.50;;;2.47;;
74900;SDS011;63461;51.416;6.758;2023-10-19T14:12:47;10.05;;;2.00;;
74900;SDS011;63461;51.416;6.758;2023-10-19T14:17:41;8.23;;;2.20;;
74900;SDS011;63461;51.416;6.758;2023-10-19T14:20:08;8.23;;;1.73;;
74900;SDS011;63461;51.416;6.758;2023-10-19T14:22:40;8.73;;;2.40;;
74900;SDS011;63461;51.416;6.758;2023-10-19T14:25:08;9.02;;;2.67;;
74900;SDS011;63461;51.416;6.758;2023-10-19T14:27:44;9.70;;;2.80;;
74900;SDS011;63461;51.416;6.758;2023-10-19T14:30:12;9.55;;;3.25;;
74900;SDS011;63461;51.416;6.758;2023-10-19T14:32:48;9.00;;;2.60;;
74900;SDS011;63461;51.416;6.758;2023-10-19T14:35:18;5.53;;;1.80;;
74900;SDS011;63461;51.416;6.758;2023-10-19T14:37:45;9.57;;;1.77;;
74900;SDS011;63461;51.416;6.758;2023-10-19T14:40:14;8.95;;;2.10;;
74900;SDS011;63461;51.416;6.758;2023-10-19T14:42:42;10.95;;;2.05;;
74900;SDS011;63461;51.416;6.758;2023-10-19T14:45:09;8.77;;;2.13;;
74900;SDS011;63461;51.416;6.758;2023-10-19T14:47:39;7.65;;;2.03;;
74900;SDS011;63461;51.416;6.758;2023-10-19T14:50:07;9.73;;;2.20;;
74900;SDS011;63461;51.416;6.758;2023-10-19T14:52:40;13.52;;;2.28;;
74900;SDS011;63461;51.416;6.758;2023-10-19T14:55:07;10.18;;;2.53;;
74900;SDS011;63461;51.416;6.758;2023-10-19T14:57:35;9.35;;;2.40;;
74900;SDS011;63461;51.416;6.758;2023-10-19T15:00:05;10.50;;;2.90;;
74900;SDS011;63461;51.416;6.758;2023-10-19T15:02:47;14.85;;;2.95;;